createdAt,value
2023-03-27T00:01:30.771Z,48.80
2023-03-27T00:03:57.837Z,60.00
2023-03-27T00:06:27.606Z,60.70
2023-03-27T00:08:54.562Z,55.10
2023-03-27T00:11:25.198Z,54.00
2023-03-27T00:13:54.766Z,56.20
2023-03-27T00:18:50.344Z,58.00
2023-03-27T00:21:17.382Z,60.50
2023-03-27T00:23:44.555Z,58.80
2023-03-27T00:26:15.583Z,58.40
2023-03-27T00:28:42.560Z,59.70
2023-03-27T00:31:14.465Z,65.30
2023-03-27T00:33:42.165Z,75.90
2023-03-27T00:36:10.421Z,73.50
2023-03-27T00:38:37.399Z,60.20
2023-03-27T00:41:05.212Z,64.50
2023-03-27T00:43:36.634Z,59.70
2023-03-27T00:46:18.936Z,62.00
2023-03-27T00:48:50.274Z,63.90
2023-03-27T00:51:20.104Z,58.30
2023-03-27T00:56:16.820Z,59.40
2023-03-27T00:58:51.439Z,58.80
2023-03-27T01:01:20.230Z,55.90
2023-03-27T01:03:49.504Z,55.20
2023-03-27T01:06:17.551Z,53.70
2023-03-27T01:08:46.277Z,55.30
2023-03-27T01:11:13.292Z,56.30
2023-03-27T01:13:43.111Z,51.00
2023-03-27T01:16:23.362Z,50.40
2023-03-27T01:18:59.324Z,76.50
2023-03-27T01:21:54.104Z,80.00
2023-03-27T01:25:04.457Z,72.40
2023-03-27T01:27:58.761Z,70.70
2023-03-27T01:30:32.039Z,56.80
2023-03-27T01:33:01.956Z,60.80
2023-03-27T01:35:38.024Z,68.90
2023-03-27T01:38:11.077Z,56.60
2023-03-27T01:41:06.477Z,60.90
2023-03-27T01:43:51.950Z,54.30
2023-03-27T01:46:28.752Z,53.10
2023-03-27T01:49:02.970Z,54.20
2023-03-27T01:51:39.826Z,56.10
2023-03-27T01:54:24.965Z,58.20
2023-03-27T01:57:04.779Z,57.10
2023-03-27T01:59:36.694Z,57.20
2023-03-27T02:02:10.608Z,51.80
2023-03-27T02:05:01.406Z,54.80
2023-03-27T02:07:42.778Z,47.90
2023-03-27T02:10:15.497Z,45.00
2023-03-27T02:12:53.151Z,44.70
2023-03-27T02:18:13.104Z,44.60
2023-03-27T02:20:41.821Z,46.80
2023-03-27T02:23:08.995Z,44.90
2023-03-27T02:25:38.449Z,46.40
2023-03-27T02:28:24.094Z,45.30
2023-03-27T02:31:31.507Z,48.40
2023-03-27T02:34:13.581Z,50.20
2023-03-27T02:37:02.366Z,54.40
2023-03-27T02:40:10.469Z,56.50
2023-03-27T02:43:03.240Z,47.00
2023-03-27T02:46:05.644Z,47.90
2023-03-27T02:48:42.429Z,50.00
2023-03-27T02:51:11.746Z,55.30
2023-03-27T02:53:46.896Z,60.00
2023-03-27T02:56:16.532Z,58.20
2023-03-27T02:59:11.594Z,49.70
2023-03-27T03:01:41.217Z,54.40
2023-03-27T03:04:28.591Z,55.90
2023-03-27T03:07:07.259Z,53.10
2023-03-27T03:09:34.777Z,52.20
2023-03-27T03:12:08.394Z,57.70
2023-03-27T03:14:44.339Z,50.80
2023-03-27T03:17:12.632Z,53.80
2023-03-27T03:19:39.498Z,58.90
2023-03-27T03:22:07.046Z,55.90
2023-03-27T03:24:35.830Z,49.50
2023-03-27T03:27:05.958Z,62.00
2023-03-27T03:29:40.597Z,55.80
2023-03-27T03:32:13.342Z,51.00
2023-03-27T03:34:41.804Z,50.30
2023-03-27T03:37:11.265Z,51.70
2023-03-27T03:39:38.235Z,48.00
2023-03-27T03:42:06.087Z,52.20
2023-03-27T03:44:34.773Z,51.50
2023-03-27T03:47:09.257Z,46.10
2023-03-27T03:49:36.100Z,47.20
2023-03-27T03:52:04.728Z,50.90
2023-03-27T03:54:33.150Z,50.60
2023-03-27T03:57:00.211Z,49.40
2023-03-27T03:59:27.344Z,47.50
2023-03-27T04:02:29.799Z,51.10
2023-03-27T04:05:08.429Z,49.00
2023-03-27T04:07:36.438Z,58.60
2023-03-27T04:10:41.031Z,57.40
2023-03-27T04:13:14.769Z,50.90
2023-03-27T04:15:51.598Z,49.90
2023-03-27T04:18:35.721Z,57.50
2023-03-27T04:21:06.997Z,52.00
2023-03-27T04:23:34.007Z,58.70
2023-03-27T04:26:03.450Z,56.00
2023-03-27T04:28:55.987Z,52.20
2023-03-27T04:31:55.510Z,60.70
2023-03-27T04:34:50.402Z,45.20
2023-03-27T04:37:36.271Z,47.40
2023-03-27T04:40:22.031Z,52.70
2023-03-27T04:42:50.431Z,57.20
2023-03-27T04:45:20.655Z,60.30
2023-03-27T04:47:49.233Z,53.50
2023-03-27T04:50:16.543Z,50.30
2023-03-27T04:52:44.983Z,56.90
2023-03-27T04:55:12.462Z,53.80
2023-03-27T04:57:41.987Z,64.70
2023-03-27T05:00:17.255Z,78.80
2023-03-27T05:02:47.968Z,53.30
2023-03-27T05:05:20.698Z,48.40
2023-03-27T05:07:49.726Z,53.10
2023-03-27T05:10:21.544Z,50.00
2023-03-27T05:12:51.543Z,50.40
2023-03-27T05:15:19.458Z,49.90
2023-03-27T05:17:54.566Z,45.30
2023-03-27T05:20:24.352Z,47.90
2023-03-27T05:22:56.529Z,47.90
2023-03-27T05:25:28.886Z,45.40
2023-03-27T05:27:56.449Z,45.20
2023-03-27T05:30:27.139Z,45.00
2023-03-27T05:33:09.629Z,52.70
2023-03-27T05:35:37.935Z,54.70
2023-03-27T05:38:06.747Z,52.50
2023-03-27T05:40:35.898Z,59.00
2023-03-27T05:43:04.225Z,55.60
2023-03-27T05:45:32.699Z,51.00
2023-03-27T05:48:02.912Z,58.60
2023-03-27T05:50:34.786Z,52.40
2023-03-27T05:53:11.258Z,57.70
2023-03-27T05:55:42.565Z,63.40
2023-03-27T05:58:11.924Z,55.00
2023-03-27T06:00:44.446Z,59.60
2023-03-27T06:03:17.431Z,54.90
2023-03-27T06:06:00.313Z,55.60
2023-03-27T06:08:29.951Z,63.20
2023-03-27T06:10:57.798Z,70.60
2023-03-27T06:13:32.126Z,87.90
2023-03-27T06:16:07.615Z,97.70
2023-03-27T06:18:54.537Z,60.50
2023-03-27T06:21:22.837Z,56.00
2023-03-27T06:23:50.520Z,41.50
2023-03-27T06:26:18.904Z,41.80
2023-03-27T06:28:46.290Z,32.40
2023-03-27T06:31:15.025Z,30.60
2023-03-27T06:34:15.309Z,27.10
2023-03-27T06:37:08.391Z,28.00
2023-03-27T06:39:39.172Z,25.40
2023-03-27T06:42:06.065Z,25.30
2023-03-27T06:44:45.754Z,23.00
2023-03-27T06:47:24.289Z,21.30
2023-03-27T06:50:24.539Z,19.00
2023-03-27T06:55:37.995Z,17.50
2023-03-27T06:58:04.961Z,16.00
2023-03-27T07:00:35.508Z,15.40
2023-03-27T07:03:32.437Z,15.80
2023-03-27T07:06:19.557Z,16.20
2023-03-27T07:08:57.654Z,14.10
2023-03-27T07:11:25.657Z,14.20
2023-03-27T07:13:58.102Z,16.70
2023-03-27T07:16:27.523Z,14.90
2023-03-27T07:18:54.831Z,20.70
2023-03-27T07:21:23.236Z,17.50
2023-03-27T07:23:50.305Z,16.40
2023-03-27T07:26:27.601Z,16.90
2023-03-27T07:29:00.777Z,16.80
2023-03-27T07:31:48.976Z,17.90
2023-03-27T07:34:16.978Z,17.30
2023-03-27T07:37:07.290Z,15.80
2023-03-27T07:39:34.278Z,14.10
2023-03-27T07:42:01.567Z,15.20
2023-03-27T07:44:48.215Z,12.80
2023-03-27T07:47:15.253Z,12.70
2023-03-27T07:49:42.153Z,14.50
2023-03-27T07:52:12.911Z,11.40
2023-03-27T07:55:01.899Z,11.90
2023-03-27T07:57:54.462Z,10.20
2023-03-27T08:00:26.178Z,10.20
2023-03-27T08:03:11.944Z,11.50
2023-03-27T08:05:43.414Z,15.20
2023-03-27T08:08:12.938Z,10.90
2023-03-27T08:10:53.948Z,7.60
2023-03-27T08:13:21.352Z,8.80
2023-03-27T08:15:48.811Z,5.20
2023-03-27T08:18:27.307Z,8.00
2023-03-27T08:20:58.672Z,7.90
2023-03-27T08:23:29.108Z,8.90
2023-03-27T08:26:05.932Z,8.00
2023-03-27T08:28:38.878Z,5.50
2023-03-27T08:31:15.288Z,4.90
2023-03-27T08:33:43.500Z,6.00
2023-03-27T08:36:14.862Z,4.80
2023-03-27T08:38:43.405Z,4.80
2023-03-27T08:41:24.733Z,5.20
2023-03-27T08:44:04.038Z,11.90
2023-03-27T08:47:06.151Z,10.00
2023-03-27T08:49:44.847Z,8.00
2023-03-27T08:52:27.469Z,7.90
2023-03-27T08:55:00.732Z,7.90
2023-03-27T08:57:35.201Z,10.10
2023-03-27T09:00:19.815Z,8.30
2023-03-27T09:03:01.296Z,8.00
2023-03-27T09:05:42.948Z,9.00
2023-03-27T09:08:25.975Z,10.50
2023-03-27T09:11:01.741Z,10.50
2023-03-27T09:13:49.137Z,13.70
2023-03-27T09:16:21.459Z,10.90
2023-03-27T09:19:00.732Z,9.40
2023-03-27T09:21:58.236Z,6.90
2023-03-27T09:24:52.423Z,7.00
2023-03-27T09:27:53.324Z,10.80
2023-03-27T09:30:43.884Z,7.00
2023-03-27T09:33:31.386Z,13.70
2023-03-27T09:35:59.313Z,9.30
2023-03-27T09:38:35.796Z,10.70
2023-03-27T09:41:11.806Z,9.20
2023-03-27T09:44:07.496Z,8.50
2023-03-27T09:46:42.878Z,5.40
2023-03-27T09:49:18.614Z,5.90
2023-03-27T09:51:52.332Z,7.10
2023-03-27T09:54:51.425Z,6.90
2023-03-27T09:57:18.752Z,6.50
2023-03-27T10:00:00.838Z,8.00
2023-03-27T10:02:31.938Z,8.30
2023-03-27T10:05:18.127Z,8.00
2023-03-27T10:07:47.598Z,5.80
2023-03-27T10:10:56.430Z,5.90
2023-03-27T10:13:48.592Z,8.70
2023-03-27T10:16:20.169Z,7.20
2023-03-27T10:18:59.998Z,5.50
2023-03-27T10:21:32.794Z,8.10
2023-03-27T10:24:17.561Z,5.70
2023-03-27T10:26:59.574Z,5.80
2023-03-27T10:31:59.091Z,4.90
2023-03-27T10:34:53.007Z,7.60
2023-03-27T10:37:41.207Z,6.40
2023-03-27T10:40:29.974Z,7.20
2023-03-27T10:43:06.046Z,7.30
2023-03-27T10:45:48.289Z,8.30
2023-03-27T10:50:58.010Z,6.30
2023-03-27T10:53:52.444Z,15.00
2023-03-27T10:56:31.452Z,10.30
2023-03-27T10:59:04.559Z,8.30
2023-03-27T11:01:42.699Z,8.40
2023-03-27T11:04:44.535Z,7.10
2023-03-27T11:07:20.923Z,8.50
2023-03-27T11:10:03.339Z,9.70
2023-03-27T11:12:37.204Z,8.60
2023-03-27T11:15:17.520Z,11.70
2023-03-27T11:17:52.405Z,7.60
2023-03-27T11:20:50.810Z,8.80
2023-03-27T11:23:33.527Z,9.00
2023-03-27T11:26:23.615Z,9.00
2023-03-27T11:29:04.365Z,8.30
2023-03-27T11:31:46.524Z,5.70
2023-03-27T11:34:36.662Z,7.60
2023-03-27T11:37:58.022Z,7.80
2023-03-27T11:40:39.566Z,10.60
2023-03-27T11:45:47.541Z,8.10
2023-03-27T11:48:57.186Z,7.60
2023-03-27T11:51:24.500Z,10.50
2023-03-27T11:54:07.714Z,8.90
2023-03-27T11:56:58.122Z,9.30
2023-03-27T11:59:48.789Z,8.50
2023-03-27T12:02:31.624Z,6.90
2023-03-27T12:05:06.647Z,5.80
2023-03-27T12:08:27.435Z,7.50
2023-03-27T12:10:59.175Z,5.90
2023-03-27T12:14:23.812Z,20.40
2023-03-27T12:17:16.225Z,6.00
2023-03-27T12:20:31.095Z,4.90
2023-03-27T12:23:18.372Z,3.50
2023-03-27T12:26:31.274Z,4.40
2023-03-27T12:29:23.511Z,3.40
2023-03-27T12:32:04.936Z,4.90
2023-03-27T12:34:59.987Z,3.80
2023-03-27T12:37:45.771Z,5.00
2023-03-27T12:42:54.371Z,4.20
2023-03-27T12:45:27.124Z,3.20
2023-03-27T12:48:10.680Z,5.20
2023-03-27T12:50:52.335Z,4.30
2023-03-27T12:53:20.099Z,4.00
2023-03-27T12:55:47.352Z,4.70
2023-03-27T12:58:34.650Z,5.20
2023-03-27T13:01:27.547Z,4.70
2023-03-27T13:04:11.165Z,4.90
2023-03-27T13:07:09.181Z,6.00
2023-03-27T13:10:25.763Z,5.30
2023-03-27T13:12:58.873Z,3.40
2023-03-27T13:16:07.217Z,4.40
2023-03-27T13:19:10.636Z,8.70
2023-03-27T13:22:28.174Z,5.10
2023-03-27T13:25:14.844Z,3.40
2023-03-27T13:27:47.828Z,3.50
2023-03-27T13:30:50.771Z,6.60
2023-03-27T13:36:28.254Z,3.60
2023-03-27T13:38:55.246Z,5.50
2023-03-27T13:41:44.050Z,7.50
2023-03-27T13:44:35.601Z,4.70
2023-03-27T13:47:34.018Z,4.00
2023-03-27T13:50:25.027Z,5.90
2023-03-27T13:53:24.701Z,4.10
2023-03-27T13:56:31.650Z,6.70
2023-03-27T13:59:40.037Z,3.60
2023-03-27T14:02:37.005Z,6.50
2023-03-27T14:05:22.029Z,4.40
2023-03-27T14:08:31.623Z,4.60
2023-03-27T14:12:21.005Z,4.20
2023-03-27T14:15:30.250Z,5.80
2023-03-27T14:18:18.209Z,5.10
2023-03-27T14:20:50.678Z,6.40
2023-03-27T14:23:28.549Z,4.70
2023-03-27T14:26:18.641Z,3.50
2023-03-27T14:28:54.567Z,3.70
2023-03-27T14:31:35.626Z,5.20
2023-03-27T14:34:35.307Z,4.50
2023-03-27T14:37:30.977Z,5.00
2023-03-27T14:40:11.087Z,3.50
2023-03-27T14:42:48.351Z,3.40
2023-03-27T14:45:22.176Z,4.30
2023-03-27T14:47:57.472Z,4.40
2023-03-27T14:50:27.959Z,4.00
2023-03-27T14:52:59.065Z,3.30
2023-03-27T14:55:36.159Z,4.60
2023-03-27T14:58:36.044Z,5.40
2023-03-27T15:01:05.490Z,4.60
2023-03-27T15:03:39.566Z,3.30
2023-03-27T15:06:27.318Z,5.70
2023-03-27T15:09:05.829Z,4.70
2023-03-27T15:12:00.790Z,5.10
2023-03-27T15:14:33.308Z,5.80
2023-03-27T15:17:15.960Z,2.90
2023-03-27T15:19:56.384Z,3.10
2023-03-27T15:22:47.857Z,2.30
2023-03-27T15:25:31.064Z,2.70
2023-03-27T15:28:04.628Z,3.70
2023-03-27T15:30:51.691Z,2.40
2023-03-27T15:33:35.817Z,3.90
2023-03-27T15:36:11.835Z,4.40
2023-03-27T15:38:41.884Z,4.10
2023-03-27T15:41:48.113Z,2.90
2023-03-27T15:44:26.107Z,5.90
2023-03-27T15:46:59.493Z,3.60
2023-03-27T15:49:41.535Z,5.50
2023-03-27T15:52:47.202Z,2.50
2023-03-27T15:55:43.038Z,3.00
2023-03-27T15:58:29.795Z,2.60
2023-03-27T16:01:18.494Z,3.00
2023-03-27T16:11:45.947Z,3.00
2023-03-27T16:14:30.517Z,3.40
2023-03-27T16:17:14.944Z,4.90
2023-03-27T16:19:43.538Z,2.00
2023-03-27T16:22:10.586Z,2.90
2023-03-27T16:24:37.644Z,4.60
2023-03-27T16:27:04.605Z,9.30
2023-03-27T16:29:31.537Z,10.40
2023-03-27T16:31:58.525Z,12.80
2023-03-27T16:34:25.442Z,5.50
2023-03-27T16:36:52.638Z,5.80
2023-03-27T16:39:19.766Z,9.20
2023-03-27T16:41:46.912Z,5.90
2023-03-27T16:44:13.857Z,9.60
2023-03-27T16:46:41.116Z,9.80
2023-03-27T16:49:12.170Z,6.50
2023-03-27T16:51:39.314Z,5.00
2023-03-27T16:54:06.578Z,4.80
2023-03-27T16:56:35.427Z,6.90
2023-03-27T16:59:03.037Z,8.50
2023-03-27T17:01:30.752Z,4.70
2023-03-27T17:03:57.738Z,5.60
2023-03-27T17:06:25.551Z,9.40
2023-03-27T17:08:56.031Z,7.10
2023-03-27T17:11:23.724Z,5.40
2023-03-27T17:13:51.029Z,12.10
2023-03-27T17:16:18.019Z,10.80
2023-03-27T17:18:45.186Z,12.50
2023-03-27T17:21:12.234Z,13.00
2023-03-27T17:23:41.155Z,13.20
2023-03-27T17:26:11.019Z,7.40
2023-03-27T17:28:39.780Z,6.80
2023-03-27T17:31:07.634Z,5.10
2023-03-27T17:33:34.688Z,4.80
2023-03-27T17:36:07.983Z,5.20
2023-03-27T17:38:35.085Z,5.00
2023-03-27T17:41:02.422Z,4.70
2023-03-27T17:43:29.897Z,6.20
2023-03-27T17:45:57.148Z,6.30
2023-03-27T17:48:24.520Z,6.40
2023-03-27T17:51:05.058Z,6.60
2023-03-27T17:53:37.155Z,8.90
2023-03-27T17:56:04.443Z,7.50
2023-03-27T17:58:34.589Z,7.70
2023-03-27T18:01:12.627Z,8.10
2023-03-27T18:03:39.666Z,8.40
2023-03-27T18:06:06.993Z,9.00
2023-03-27T18:08:34.414Z,8.80
2023-03-27T18:11:01.545Z,8.20
2023-03-27T18:13:30.641Z,7.70
2023-03-27T18:15:58.669Z,6.60
2023-03-27T18:18:26.430Z,7.10
2023-03-27T18:20:57.322Z,8.50
2023-03-27T18:23:24.287Z,18.40
2023-03-27T18:25:51.118Z,6.50
2023-03-27T18:28:17.965Z,9.10
2023-03-27T18:30:44.971Z,7.20
2023-03-27T18:33:12.440Z,5.80
2023-03-27T18:35:39.537Z,7.70
2023-03-27T18:38:06.912Z,6.40
2023-03-27T18:40:33.955Z,6.30
2023-03-27T18:43:01.387Z,6.30
2023-03-27T18:45:28.540Z,6.20
2023-03-27T18:47:55.783Z,4.80
2023-03-27T18:50:23.771Z,5.10
2023-03-27T18:52:50.916Z,8.40
2023-03-27T18:55:18.850Z,6.30
2023-03-27T18:57:46.357Z,8.40
2023-03-27T19:00:18.620Z,8.60
2023-03-27T19:02:46.503Z,6.80
2023-03-27T19:05:15.527Z,5.60
2023-03-27T19:07:44.462Z,4.90
2023-03-27T19:10:14.125Z,4.60
2023-03-27T19:12:46.072Z,6.20
2023-03-27T19:15:32.476Z,4.30
2023-03-27T19:18:05.908Z,8.30
2023-03-27T19:21:00.095Z,4.10
2023-03-27T19:23:45.939Z,4.10
2023-03-27T19:26:17.822Z,6.40
2023-03-27T19:28:48.042Z,4.10
2023-03-27T19:31:16.110Z,6.60
2023-03-27T19:33:43.640Z,5.50
2023-03-27T19:36:13.052Z,4.20
2023-03-27T19:38:40.420Z,5.00
2023-03-27T19:41:11.252Z,3.90
2023-03-27T19:43:41.120Z,6.40
2023-03-27T19:48:51.588Z,9.40
2023-03-27T19:51:37.631Z,6.10
2023-03-27T19:54:04.992Z,15.00
2023-03-27T19:56:32.597Z,4.80
2023-03-27T19:59:00.031Z,7.50
2023-03-27T20:01:28.749Z,7.80
2023-03-27T20:03:57.461Z,6.70
2023-03-27T20:06:26.348Z,8.00
2023-03-27T20:08:53.749Z,5.70
2023-03-27T20:11:20.810Z,6.50
2023-03-27T20:13:55.955Z,5.50
2023-03-27T20:16:26.650Z,6.30
2023-03-27T20:19:04.604Z,5.80
2023-03-27T20:21:35.339Z,4.10
2023-03-27T20:24:07.396Z,6.80
2023-03-27T20:26:39.576Z,6.50
2023-03-27T20:29:18.485Z,5.20
2023-03-27T20:31:46.241Z,6.80
2023-03-27T20:34:13.813Z,6.90
2023-03-27T20:36:40.972Z,7.20
2023-03-27T20:39:34.428Z,7.50
2023-03-27T20:42:01.472Z,7.20
2023-03-27T20:44:37.122Z,6.30
2023-03-27T20:47:12.389Z,6.60
2023-03-27T20:49:43.386Z,9.10
2023-03-27T20:52:13.333Z,10.80
2023-03-27T20:54:40.787Z,5.90
2023-03-27T20:57:10.404Z,5.70
2023-03-27T20:59:37.554Z,6.10
2023-03-27T21:02:05.382Z,4.20
2023-03-27T21:04:32.685Z,4.60
2023-03-27T21:06:59.746Z,7.20
2023-03-27T21:09:27.810Z,6.20
2023-03-27T21:11:55.927Z,5.70
2023-03-27T21:14:23.450Z,7.70
2023-03-27T21:16:50.601Z,6.90
2023-03-27T21:19:20.024Z,5.30
2023-03-27T21:21:47.432Z,7.20
2023-03-27T21:24:14.532Z,6.60
2023-03-27T21:26:42.000Z,4.60
2023-03-27T21:29:11.104Z,5.20
2023-03-27T21:31:39.541Z,5.40
2023-03-27T21:34:07.463Z,5.20
2023-03-27T21:36:35.295Z,4.70
2023-03-27T21:39:02.387Z,5.40
2023-03-27T21:41:29.694Z,10.40
2023-03-27T21:43:56.705Z,12.90
2023-03-27T21:46:23.892Z,13.70
2023-03-27T21:48:51.717Z,11.00
2023-03-27T21:51:19.524Z,7.20
2023-03-27T21:53:46.972Z,10.30
2023-03-27T21:56:14.124Z,8.80
2023-03-27T21:58:41.052Z,6.00
2023-03-27T22:01:08.468Z,9.20
2023-03-27T22:03:35.779Z,7.70
2023-03-27T22:06:12.603Z,9.30
2023-03-27T22:08:43.040Z,6.00
2023-03-27T22:11:11.912Z,7.50
2023-03-27T22:13:39.509Z,7.10
2023-03-27T22:16:15.037Z,9.50
2023-03-27T22:18:43.369Z,6.90
2023-03-27T22:21:25.560Z,9.20
2023-03-27T22:23:54.071Z,11.20
2023-03-27T22:26:33.398Z,9.10
2023-03-27T22:29:00.633Z,8.90
2023-03-27T22:31:29.442Z,11.40
2023-03-27T22:33:56.788Z,8.00
2023-03-27T22:36:23.981Z,8.50
2023-03-27T22:38:53.517Z,8.90
2023-03-27T22:41:20.511Z,12.80
2023-03-27T22:43:49.665Z,12.40
2023-03-27T22:46:19.686Z,11.20
2023-03-27T22:51:14.461Z,10.50
2023-03-27T22:53:42.008Z,12.40
2023-03-27T22:56:10.043Z,9.70
2023-03-27T22:58:37.135Z,9.10
2023-03-27T23:01:05.928Z,10.40
2023-03-27T23:03:33.464Z,7.30
2023-03-27T23:06:00.937Z,9.40
2023-03-27T23:08:28.725Z,10.60
2023-03-27T23:11:01.319Z,13.30
2023-03-27T23:13:30.182Z,11.50
2023-03-27T23:15:57.774Z,10.40
2023-03-27T23:18:25.644Z,10.70
2023-03-27T23:20:58.021Z,12.10
2023-03-27T23:23:26.628Z,8.60
2023-03-27T23:25:54.272Z,10.30
2023-03-27T23:28:21.815Z,10.00
2023-03-27T23:30:56.793Z,9.80
2023-03-27T23:33:25.438Z,14.70
2023-03-27T23:35:54.158Z,17.20
2023-03-27T23:38:21.097Z,15.30
2023-03-27T23:40:54.902Z,12.90
2023-03-27T23:43:21.799Z,13.60
2023-03-27T23:45:48.753Z,13.50
2023-03-27T23:48:15.855Z,11.80
2023-03-27T23:50:42.815Z,12.50
2023-03-27T23:53:09.671Z,14.30
2023-03-27T23:55:36.603Z,14.60
2023-03-27T23:58:04.538Z,15.60
